Terminal Aerodrome Forecast
Issued by NWS Sioux Falls, SD

Home | Current Version | Previous Version | Graphics & Text | Print | Product List | Glossary Off
Versions: 1 2 3 4 5 6 7 8 9 10 11 12 13 14

000
FTUS43 KFSD 061956 AAA
TAFHON
TAF AMD
KHON 061956Z 0620/0718 27011KT P6SM SCT100 BKN200
      TEMPO 0622/0623 P6SM -TSRA BKN080CB
     FM070000 36013G18KT P6SM SCT100 SCT200
     FM070500 03013KT P6SM BKN080
     FM071200 07011KT P6SM SCT100 BKN150=

USA.gov is the U.S. government's official web portal to all federal, state and local government web resources and services.